createdAt,value
2018-04-11T00:00:30.476Z,17.93
2018-04-11T00:02:58.639Z,18.47
2018-04-11T00:05:26.765Z,18.57
2018-04-11T00:07:54.890Z,15.90
2018-04-11T00:10:23.046Z,17.23
2018-04-11T00:12:51.182Z,15.90
2018-04-11T00:15:19.321Z,18.57
2018-04-11T00:17:48.251Z,17.10
2018-04-11T00:20:16.382Z,15.97
2018-04-11T00:22:44.534Z,16.70
2018-04-11T00:25:12.675Z,14.63
2018-04-11T00:27:40.829Z,15.67
2018-04-11T00:30:08.957Z,15.47
2018-04-11T00:32:37.089Z,15.00
2018-04-11T00:35:05.247Z,15.67
2018-04-11T00:37:33.373Z,16.63
2018-04-11T00:40:01.503Z,15.50
2018-04-11T00:42:29.658Z,15.70
2018-04-11T00:44:57.789Z,14.70
2018-04-11T00:47:25.949Z,14.67
2018-04-11T00:49:54.087Z,15.33
2018-04-11T00:52:22.238Z,14.87
2018-04-11T00:54:51.132Z,17.40
2018-04-11T00:57:19.299Z,17.50
2018-04-11T00:59:47.454Z,15.77
2018-04-11T01:02:16.348Z,16.07
2018-04-11T01:04:45.294Z,17.10
2018-04-11T01:07:13.435Z,17.10
2018-04-11T01:09:41.571Z,19.33
2018-04-11T01:12:09.726Z,17.53
2018-04-11T01:14:37.867Z,17.83
2018-04-11T01:17:06.026Z,18.77
2018-04-11T01:19:34.174Z,17.73
2018-04-11T01:22:03.097Z,18.30
2018-04-11T01:24:31.232Z,17.40
2018-04-11T01:27:00.174Z,17.70
2018-04-11T01:29:28.313Z,17.57
2018-04-11T01:31:56.448Z,17.40
2018-04-11T01:34:24.605Z,17.60
2018-04-11T01:36:52.741Z,16.67
2018-04-11T01:39:20.889Z,15.90
2018-04-11T01:41:49.785Z,17.87
2018-04-11T01:44:18.702Z,17.50
2018-04-11T01:46:46.839Z,17.30
2018-04-11T01:49:15.737Z,17.40
2018-04-11T01:51:43.889Z,19.00
2018-04-11T01:54:12.049Z,18.20
2018-04-11T01:56:40.210Z,20.47
2018-04-11T01:59:08.370Z,20.03
2018-04-11T02:01:36.498Z,21.13
2018-04-11T02:04:05.400Z,20.53
2018-04-11T02:06:33.557Z,18.13
2018-04-11T02:09:02.467Z,19.03
2018-04-11T02:11:30.593Z,17.93
2018-04-11T02:13:58.766Z,18.60
2018-04-11T02:16:26.905Z,19.50
2018-04-11T02:18:55.035Z,19.00
2018-04-11T02:21:23.961Z,20.27
2018-04-11T02:23:52.103Z,20.53
2018-04-11T02:26:20.262Z,19.63
2018-04-11T02:28:49.218Z,21.43
2018-04-11T02:31:17.374Z,19.47
2018-04-11T02:33:45.509Z,21.90
2018-04-11T02:36:14.422Z,21.00
2018-04-11T02:38:42.581Z,19.60
2018-04-11T02:41:10.731Z,23.33
2018-04-11T02:43:38.895Z,21.00
2018-04-11T02:46:07.022Z,22.00
2018-04-11T02:48:35.219Z,19.70
2018-04-11T02:51:03.474Z,21.83
2018-04-11T02:53:31.620Z,21.77
2018-04-11T02:55:59.755Z,21.40
2018-04-11T02:58:27.912Z,22.40
2018-04-11T03:00:56.070Z,21.93
2018-04-11T03:03:26.996Z,22.50
2018-04-11T03:05:55.160Z,22.80
2018-04-11T03:08:23.294Z,22.83
2018-04-11T03:10:52.223Z,22.00
2018-04-11T03:13:20.357Z,24.13
2018-04-11T03:15:48.545Z,25.07
2018-04-11T03:18:16.659Z,24.33
2018-04-11T03:20:44.798Z,23.30
2018-04-11T03:23:13.769Z,23.53
2018-04-11T03:25:42.669Z,24.63
2018-04-11T03:28:10.846Z,22.47
2018-04-11T03:30:39.739Z,24.23
2018-04-11T03:33:07.890Z,23.37
2018-04-11T03:35:36.785Z,23.43
2018-04-11T03:38:05.678Z,23.40
2018-04-11T03:40:34.598Z,24.33
2018-04-11T03:43:02.734Z,23.40
2018-04-11T03:45:31.650Z,24.37
2018-04-11T03:47:59.787Z,24.30
2018-04-11T03:50:28.073Z,24.97
2018-04-11T03:52:56.974Z,23.30
2018-04-11T03:55:25.883Z,25.37
2018-04-11T03:57:54.050Z,24.53
2018-04-11T04:00:22.222Z,24.00
2018-04-11T04:02:50.354Z,23.53
2018-04-11T04:05:18.479Z,25.17
2018-04-11T04:07:46.674Z,24.10
2018-04-11T04:10:14.854Z,23.93
2018-04-11T04:12:43.022Z,24.60
2018-04-11T04:15:29.039Z,24.63
2018-04-11T04:18:15.302Z,23.00
2018-04-11T04:20:43.443Z,24.77
2018-04-11T04:23:11.581Z,24.00
2018-04-11T04:25:39.731Z,23.60
2018-04-11T04:28:08.617Z,23.17
2018-04-11T04:30:36.764Z,22.87
2018-04-11T04:33:04.898Z,24.97
2018-04-11T04:35:33.830Z,24.07
2018-04-11T04:38:01.960Z,24.57
2018-04-11T04:40:30.890Z,22.83
2018-04-11T04:42:59.018Z,23.80
2018-04-11T04:45:27.174Z,22.40
2018-04-11T04:47:55.345Z,21.77
2018-04-11T04:50:23.486Z,23.20
2018-04-11T04:52:51.639Z,23.97
2018-04-11T04:55:19.791Z,24.37
2018-04-11T04:57:48.721Z,22.60
2018-04-11T05:00:16.875Z,24.80
2018-04-11T05:02:45.762Z,23.50
2018-04-11T05:05:13.916Z,22.97
2018-04-11T05:07:42.830Z,22.53
2018-04-11T05:10:10.982Z,22.00
2018-04-11T05:12:39.886Z,22.70
2018-04-11T05:15:08.043Z,22.77
2018-04-11T05:17:36.937Z,24.23
2018-04-11T05:20:05.861Z,22.10
2018-04-11T05:22:34.049Z,22.10
2018-04-11T05:25:02.227Z,22.43
2018-04-11T05:27:30.372Z,23.43
2018-04-11T05:29:58.511Z,23.77
2018-04-11T05:32:27.426Z,21.97
2018-04-11T05:34:55.577Z,24.03
2018-04-11T05:37:24.486Z,22.10
2018-04-11T05:39:52.655Z,25.47
2018-04-11T05:42:20.815Z,24.10
2018-04-11T05:44:48.957Z,21.50
2018-04-11T05:47:17.106Z,23.30
2018-04-11T05:49:45.286Z,24.00
2018-04-11T05:52:13.438Z,24.00
2018-04-11T05:54:42.423Z,24.70
2018-04-11T05:57:10.550Z,24.17
2018-04-11T05:59:38.704Z,23.80
2018-04-11T06:02:06.835Z,21.67
2018-04-11T06:04:34.981Z,22.90
2018-04-11T06:07:03.894Z,20.47
2018-04-11T06:09:32.045Z,21.20
2018-04-11T06:12:00.946Z,22.70
2018-04-11T06:14:29.110Z,22.03
2018-04-11T06:16:58.031Z,20.80
2018-04-11T06:19:26.165Z,20.90
2018-04-11T06:21:55.094Z,21.80
2018-04-11T06:24:23.218Z,21.80
2018-04-11T06:26:51.359Z,21.97
2018-04-11T06:29:19.502Z,23.90
2018-04-11T06:31:47.698Z,22.97
2018-04-11T06:34:15.849Z,20.70
2018-04-11T06:36:43.999Z,21.27
2018-04-11T06:39:12.923Z,23.13
2018-04-11T06:41:41.046Z,23.00
2018-04-11T06:44:10.066Z,20.87
2018-04-11T06:46:38.194Z,21.37
2018-04-11T06:49:06.350Z,22.97
2018-04-11T06:51:35.153Z,20.27
2018-04-11T06:54:03.303Z,21.50
2018-04-11T06:56:31.516Z,20.43
2018-04-11T06:58:59.707Z,21.53
2018-04-11T07:01:28.593Z,20.90
2018-04-11T07:03:57.684Z,19.40
2018-04-11T07:06:26.681Z,21.50
2018-04-11T07:08:55.594Z,22.40
2018-04-11T07:11:24.533Z,21.17
2018-04-11T07:13:52.678Z,20.97
2018-04-11T07:16:20.823Z,21.40
2018-04-11T07:18:49.798Z,22.60
2018-04-11T07:21:18.701Z,20.30
2018-04-11T07:23:46.850Z,20.07
2018-04-11T07:26:15.759Z,20.77
2018-04-11T07:28:43.890Z,20.47
2018-04-11T07:31:12.047Z,22.20
2018-04-11T07:33:40.301Z,20.10
2018-04-11T07:36:10.414Z,21.07
2018-04-11T07:38:38.567Z,21.90
2018-04-11T07:41:06.705Z,22.50
2018-04-11T07:43:35.769Z,21.50
2018-04-11T07:46:03.982Z,21.60
2018-04-11T07:48:32.051Z,22.03
2018-04-11T07:51:00.266Z,20.97
2018-04-11T07:53:28.398Z,21.20
2018-04-11T07:55:56.536Z,21.17
2018-04-11T07:58:24.686Z,21.23
2018-04-11T08:00:52.823Z,20.70
2018-04-11T08:03:21.768Z,21.53
2018-04-11T08:05:49.930Z,22.40
2018-04-11T08:08:18.070Z,20.07
2018-04-11T08:10:46.966Z,21.50
2018-04-11T08:13:15.228Z,19.90
2018-04-11T08:15:44.133Z,19.33
2018-04-11T08:18:12.318Z,20.83
2018-04-11T08:20:40.482Z,18.53
2018-04-11T08:23:08.613Z,22.00
2018-04-11T08:25:36.745Z,19.67
2018-04-11T08:28:04.919Z,19.00
2018-04-11T08:30:33.088Z,20.00
2018-04-11T08:33:01.218Z,19.27
2018-04-11T08:35:30.140Z,19.80
2018-04-11T08:37:58.311Z,19.50
2018-04-11T08:40:26.437Z,19.47
2018-04-11T08:42:54.774Z,20.07
2018-04-11T08:48:20.666Z,18.10
2018-04-11T08:50:49.561Z,19.00
2018-04-11T08:53:18.460Z,19.47
2018-04-11T08:55:47.386Z,19.37
2018-04-11T08:58:15.522Z,18.00
2018-04-11T09:00:44.438Z,17.60
2018-04-11T09:03:12.565Z,19.80
2018-04-11T09:05:40.721Z,18.77
2018-04-11T09:08:08.876Z,19.10
2018-04-11T09:10:37.035Z,19.67
2018-04-11T09:13:05.185Z,17.00
2018-04-11T09:15:33.343Z,18.13
2018-04-11T09:18:02.237Z,18.80
2018-04-11T09:20:31.126Z,17.80
2018-04-11T09:23:00.063Z,17.70
2018-04-11T09:25:28.199Z,17.97
2018-04-11T09:27:56.337Z,18.30
2018-04-11T09:30:24.486Z,17.77
2018-04-11T09:32:52.638Z,18.50
2018-04-11T09:35:20.763Z,17.17
2018-04-11T09:37:48.898Z,16.77
2018-04-11T09:40:17.048Z,18.07
2018-04-11T09:42:45.193Z,17.20
2018-04-11T09:45:14.114Z,17.83
2018-04-11T09:47:42.238Z,18.10
2018-04-11T09:50:10.373Z,17.83
2018-04-11T09:52:38.691Z,17.90
2018-04-11T09:55:07.446Z,17.00
2018-04-11T09:57:35.574Z,17.50
2018-04-11T10:00:03.734Z,18.17
2018-04-11T10:02:37.434Z,18.43
2018-04-11T10:05:06.347Z,19.20
2018-04-11T10:07:34.498Z,17.57
2018-04-11T10:10:03.416Z,17.70
2018-04-11T10:12:31.553Z,18.07
2018-04-11T10:15:00.466Z,16.60
2018-04-11T10:17:28.612Z,17.20
2018-04-11T10:19:57.543Z,18.23
2018-04-11T10:22:25.675Z,17.00
2018-04-11T10:24:54.661Z,18.63
2018-04-11T10:27:22.753Z,17.73
2018-04-11T10:29:51.668Z,18.57
2018-04-11T10:32:19.839Z,17.77
2018-04-11T10:34:47.962Z,18.47
2018-04-11T10:37:16.087Z,17.97
2018-04-11T10:39:44.261Z,18.27
2018-04-11T10:42:12.390Z,19.10
2018-04-11T10:44:41.282Z,18.80
2018-04-11T10:47:10.197Z,17.60
2018-04-11T10:49:38.325Z,17.20
2018-04-11T10:52:06.507Z,19.07
2018-04-11T10:54:34.634Z,17.57
2018-04-11T10:57:02.771Z,18.47
2018-04-11T10:59:31.703Z,19.17
2018-04-11T11:01:59.841Z,18.60
2018-04-11T11:04:28.733Z,17.30
2018-04-11T11:06:56.910Z,16.17
2018-04-11T11:09:25.054Z,17.47
2018-04-11T11:11:53.970Z,17.43
2018-04-11T11:14:22.126Z,19.90
2018-04-11T11:16:51.077Z,20.30
2018-04-11T11:19:19.205Z,16.50
2018-04-11T11:21:47.396Z,17.80
2018-04-11T11:24:15.546Z,17.87
2018-04-11T11:26:44.473Z,18.33
2018-04-11T11:29:12.619Z,17.57
2018-04-11T11:31:40.790Z,17.60
2018-04-11T11:34:08.938Z,17.40
2018-04-11T11:36:37.846Z,17.30
2018-04-11T11:39:06.001Z,16.40
2018-04-11T11:41:34.919Z,16.47
2018-04-11T11:44:03.096Z,17.20
2018-04-11T11:46:31.225Z,17.77
2018-04-11T11:48:59.358Z,17.00
2018-04-11T11:51:27.505Z,17.13
2018-04-11T11:53:55.633Z,17.00
2018-04-11T11:56:23.784Z,14.43
2018-04-11T11:58:51.913Z,15.10
2018-04-11T12:01:20.046Z,17.30
2018-04-11T12:03:48.198Z,16.27
2018-04-11T12:06:16.345Z,15.30
2018-04-11T12:08:44.469Z,14.13
2018-04-11T12:11:12.610Z,14.97
2018-04-11T12:13:40.730Z,16.70
2018-04-11T12:16:09.642Z,16.90
2018-04-11T12:18:37.778Z,16.67
2018-04-11T12:21:06.919Z,18.80
2018-04-11T12:23:35.062Z,17.63
2018-04-11T12:26:04.015Z,18.27
2018-04-11T12:28:32.205Z,19.00
2018-04-11T12:31:00.368Z,17.60
2018-04-11T12:33:28.519Z,16.50
2018-04-11T12:35:56.646Z,18.60
2018-04-11T12:38:24.814Z,17.30
2018-04-11T12:40:53.709Z,17.23
2018-04-11T12:43:22.633Z,18.00
2018-04-11T12:45:50.805Z,18.27
2018-04-11T12:48:18.937Z,16.33
2018-04-11T12:50:47.850Z,16.87
2018-04-11T12:53:15.982Z,17.27
2018-04-11T12:55:44.181Z,16.10
2018-04-11T12:58:13.014Z,15.90
2018-04-11T13:00:41.169Z,17.03
2018-04-11T13:03:09.332Z,16.93
2018-04-11T13:05:37.461Z,16.30
2018-04-11T13:08:05.614Z,16.53
2018-04-11T13:10:33.767Z,16.97
2018-04-11T13:13:02.007Z,16.80
2018-04-11T13:15:30.930Z,17.57
2018-04-11T13:17:59.053Z,17.17
2018-04-11T13:20:27.198Z,14.87
2018-04-11T13:22:55.341Z,15.93
2018-04-11T13:25:23.622Z,16.53
2018-04-11T13:27:51.903Z,17.30
2018-04-11T13:30:20.146Z,17.13
2018-04-11T13:32:48.914Z,17.20
2018-04-11T13:35:17.860Z,17.20
2018-04-11T13:37:46.093Z,18.07
2018-04-11T13:40:15.016Z,18.60
2018-04-11T13:42:43.142Z,19.80
2018-04-11T13:45:12.042Z,17.67
2018-04-11T13:47:40.960Z,18.10
2018-04-11T13:50:09.104Z,16.53
2018-04-11T13:52:45.145Z,17.20
2018-04-11T13:55:13.302Z,19.13
2018-04-11T13:57:41.654Z,18.60
2018-04-11T14:00:09.809Z,18.23
2018-04-11T14:02:38.014Z,16.93
2018-04-11T14:05:06.175Z,18.07
2018-04-11T14:07:34.318Z,15.80
2018-04-11T14:10:02.446Z,18.50
2018-04-11T14:12:30.603Z,17.50
2018-04-11T14:14:58.732Z,17.07
2018-04-11T14:17:26.899Z,16.83
2018-04-11T14:19:55.086Z,16.13
2018-04-11T14:22:23.189Z,18.53
2018-04-11T14:24:51.348Z,18.30
2018-04-11T14:27:19.488Z,17.20
2018-04-11T14:29:47.618Z,18.83
2018-04-11T14:32:16.880Z,18.30
2018-04-11T14:34:45.006Z,18.93
2018-04-11T14:37:13.259Z,18.67
2018-04-11T14:39:41.430Z,20.10
2018-04-11T14:42:09.883Z,20.00
2018-04-11T14:44:38.019Z,21.17
2018-04-11T14:47:06.942Z,20.90
2018-04-11T14:49:35.086Z,20.97
2018-04-11T14:52:04.016Z,20.43
2018-04-11T14:54:32.159Z,20.40
2018-04-11T14:57:00.386Z,21.70
2018-04-11T14:59:28.566Z,20.70
2018-04-11T15:01:56.723Z,20.17
2018-04-11T15:04:24.871Z,22.20
2018-04-11T15:06:53.032Z,21.60
2018-04-11T15:09:21.268Z,18.57
2018-04-11T15:11:49.415Z,19.97
2018-04-11T15:14:17.666Z,21.20
2018-04-11T15:16:45.789Z,21.50
2018-04-11T15:19:13.914Z,21.63
2018-04-11T15:21:42.895Z,22.50
2018-04-11T15:24:11.095Z,23.50
2018-04-11T15:26:39.370Z,20.20
2018-04-11T15:29:07.534Z,21.90
2018-04-11T15:31:35.801Z,21.43
2018-04-11T15:34:03.965Z,23.03
2018-04-11T15:36:32.115Z,22.80
2018-04-11T15:39:01.007Z,21.40
2018-04-11T15:41:29.341Z,21.80
2018-04-11T15:43:57.465Z,20.57
2018-04-11T15:46:36.467Z,22.10
2018-04-11T15:49:06.229Z,22.47
2018-04-11T15:51:34.377Z,21.50
2018-04-11T15:54:02.523Z,22.67
2018-04-11T15:56:31.424Z,21.80
2018-04-11T15:59:00.342Z,22.27
2018-04-11T16:01:28.486Z,23.40
2018-04-11T16:03:57.374Z,23.17
2018-04-11T16:06:26.346Z,23.13
2018-04-11T16:08:54.486Z,24.17
2018-04-11T16:11:22.648Z,24.30
2018-04-11T16:13:50.773Z,25.60
2018-04-11T16:16:20.338Z,24.57
2018-04-11T16:18:48.475Z,25.53
2018-04-11T16:21:16.640Z,24.43
2018-04-11T16:23:44.771Z,24.83
2018-04-11T16:26:12.897Z,24.03
2018-04-11T16:28:41.193Z,22.40
2018-04-11T16:31:09.321Z,23.57
2018-04-11T16:33:38.358Z,23.80
2018-04-11T16:36:06.511Z,23.00
2018-04-11T16:38:34.749Z,22.67
2018-04-11T16:41:02.891Z,23.33
2018-04-11T16:43:31.017Z,23.27
2018-04-11T16:45:59.174Z,24.60
2018-04-11T16:48:28.069Z,22.90
2018-04-11T16:50:56.970Z,22.07
2018-04-11T16:53:25.121Z,23.70
2018-04-11T16:55:54.019Z,23.90
2018-04-11T16:58:22.948Z,24.40
2018-04-11T17:00:51.945Z,23.43
2018-04-11T17:03:20.073Z,24.87
2018-04-11T17:05:48.987Z,25.40
2018-04-11T17:08:17.126Z,25.33
2018-04-11T17:10:46.055Z,24.87
2018-04-11T17:13:14.185Z,24.57
2018-04-11T17:15:42.332Z,26.23
2018-04-11T17:18:10.484Z,26.57
2018-04-11T17:20:56.524Z,25.33
2018-04-11T17:23:43.483Z,26.70
2018-04-11T17:26:29.427Z,27.17
2018-04-11T17:29:15.590Z,26.93
2018-04-11T17:31:43.734Z,28.43
2018-04-11T17:34:11.887Z,27.30
2018-04-11T17:36:40.738Z,27.53
2018-04-11T17:39:08.866Z,27.97
2018-04-11T17:41:37.162Z,28.27
2018-04-11T17:44:05.296Z,27.83
2018-04-11T17:46:34.222Z,29.50
2018-04-11T17:49:02.346Z,30.50
2018-04-11T17:51:31.238Z,28.53
2018-04-11T17:54:00.162Z,29.20
2018-04-11T17:56:28.443Z,29.07
2018-04-11T17:58:56.570Z,29.23
2018-04-11T18:01:25.530Z,28.13
2018-04-11T18:03:53.696Z,28.90
2018-04-11T18:06:21.822Z,30.37
2018-04-11T18:08:49.955Z,29.27
2018-04-11T18:11:18.790Z,31.03
2018-04-11T18:13:46.919Z,30.00
2018-04-11T18:16:15.052Z,29.00
2018-04-11T18:18:43.206Z,29.80
2018-04-11T18:21:11.354Z,30.00
2018-04-11T18:23:40.319Z,31.47
2018-04-11T18:26:08.449Z,31.37
2018-04-11T18:28:36.582Z,32.23
2018-04-11T18:31:04.728Z,30.93
2018-04-11T18:33:32.872Z,32.03
2018-04-11T18:36:01.102Z,31.40
2018-04-11T18:38:30.007Z,31.80
2018-04-11T18:40:58.932Z,32.77
2018-04-11T18:43:28.018Z,31.97
2018-04-11T18:45:56.182Z,30.30
2018-04-11T18:48:31.162Z,32.07
2018-04-11T18:51:00.086Z,32.30
2018-04-11T18:53:29.046Z,32.60
2018-04-11T18:55:57.160Z,33.20
2018-04-11T18:58:25.314Z,31.00
2018-04-11T19:00:54.228Z,33.47
2018-04-11T19:03:22.389Z,32.13
2018-04-11T19:05:51.175Z,32.00
2018-04-11T19:08:19.350Z,33.10
2018-04-11T19:10:47.522Z,32.90
2018-04-11T19:13:15.848Z,34.70
2018-04-11T19:15:44.611Z,31.30
2018-04-11T19:18:12.762Z,34.73
2018-04-11T19:20:40.937Z,35.53
2018-04-11T19:23:09.135Z,33.50
2018-04-11T19:25:37.327Z,33.53
2018-04-11T19:28:05.466Z,34.00
2018-04-11T19:30:33.629Z,33.00
2018-04-11T19:33:01.762Z,36.43
2018-04-11T19:35:29.923Z,34.30
2018-04-11T19:37:58.121Z,35.70
2018-04-11T19:40:26.260Z,37.83
2018-04-11T19:42:54.538Z,35.80
2018-04-11T19:45:22.686Z,35.97
2018-04-11T19:47:51.105Z,36.57
2018-04-11T19:50:19.280Z,36.00
2018-04-11T19:52:51.070Z,37.83
2018-04-11T19:55:19.230Z,35.27
2018-04-11T19:57:50.875Z,34.67
2018-04-11T20:00:19.911Z,40.87
2018-04-11T20:02:48.067Z,37.03
2018-04-11T20:05:16.205Z,35.50
2018-04-11T20:07:44.382Z,35.60
2018-04-11T20:10:12.518Z,35.77
2018-04-11T20:12:40.647Z,35.37
2018-04-11T20:15:09.566Z,36.87
2018-04-11T20:17:37.721Z,37.33
2018-04-11T20:20:05.954Z,36.57
2018-04-11T20:22:34.191Z,37.77
2018-04-11T20:25:02.324Z,37.20
2018-04-11T20:27:31.233Z,37.90
2018-04-11T20:29:59.423Z,37.17
2018-04-11T20:32:27.553Z,36.83
2018-04-11T20:34:56.479Z,36.33
2018-04-11T20:37:24.631Z,35.63
2018-04-11T20:39:52.829Z,33.33
2018-04-11T20:42:20.976Z,37.67
2018-04-11T20:44:49.906Z,36.47
2018-04-11T20:47:18.043Z,35.80
2018-04-11T20:49:46.190Z,36.60
2018-04-11T20:52:14.338Z,37.20
2018-04-11T20:54:42.497Z,35.50
2018-04-11T20:57:10.756Z,36.90
2018-04-11T20:59:38.890Z,37.17
2018-04-11T21:02:07.809Z,38.90
2018-04-11T21:04:35.993Z,35.87
2018-04-11T21:07:04.138Z,34.63
2018-04-11T21:09:33.066Z,34.83
2018-04-11T21:12:01.195Z,37.87
2018-04-11T21:14:30.110Z,37.27
2018-04-11T21:16:58.265Z,39.07
2018-04-11T21:19:26.459Z,35.93
2018-04-11T21:21:55.399Z,35.30
2018-04-11T21:24:25.306Z,35.83
2018-04-11T21:26:53.439Z,35.20
2018-04-11T21:29:21.571Z,35.33
2018-04-11T21:31:51.377Z,35.37
2018-04-11T21:34:20.275Z,33.50
2018-04-11T21:36:49.190Z,33.63
2018-04-11T21:39:18.090Z,35.90
2018-04-11T21:41:46.258Z,34.80
2018-04-11T21:44:18.524Z,36.07
2018-04-11T21:46:47.510Z,33.57
2018-04-11T21:49:15.694Z,33.07
2018-04-11T21:51:43.966Z,32.00
2018-04-11T21:54:12.102Z,32.10
2018-04-11T21:56:40.997Z,32.20
2018-04-11T21:59:09.915Z,34.23
2018-04-11T22:01:38.042Z,34.60
2018-04-11T22:04:06.198Z,33.43
2018-04-11T22:06:34.359Z,33.77
2018-04-11T22:09:02.502Z,31.70
2018-04-11T22:11:30.638Z,32.33
2018-04-11T22:13:58.790Z,33.07
2018-04-11T22:16:26.951Z,29.97
2018-04-11T22:18:55.110Z,30.30
2018-04-11T22:21:23.257Z,30.63
2018-04-11T22:23:51.414Z,31.97
2018-04-11T22:26:20.342Z,32.00
2018-04-11T22:28:49.138Z,32.10
2018-04-11T22:31:17.266Z,29.40
2018-04-11T22:33:46.202Z,29.17
2018-04-11T22:36:14.334Z,29.10
2018-04-11T22:38:42.510Z,29.23
2018-04-11T22:41:11.402Z,28.67
2018-04-11T22:43:39.554Z,28.80
2018-04-11T22:46:07.790Z,29.80
2018-04-11T22:48:35.942Z,31.77
2018-04-11T22:51:04.074Z,27.50
2018-04-11T22:53:33.000Z,29.73
2018-04-11T22:56:01.152Z,29.43
2018-04-11T22:58:30.079Z,28.40
2018-04-11T23:00:58.212Z,28.70
2018-04-11T23:03:27.225Z,29.47
2018-04-11T23:05:55.366Z,29.83
2018-04-11T23:08:24.298Z,26.93
2018-04-11T23:10:52.443Z,27.00
2018-04-11T23:13:20.598Z,27.70
2018-04-11T23:15:49.518Z,27.00
2018-04-11T23:18:17.679Z,27.53
2018-04-11T23:20:46.601Z,28.17
2018-04-11T23:23:14.729Z,29.37
2018-04-11T23:25:43.646Z,26.13
2018-04-11T23:28:11.799Z,29.10
2018-04-11T23:30:40.689Z,26.23
2018-04-11T23:33:09.593Z,29.23
2018-04-11T23:35:38.527Z,27.03
2018-04-11T23:38:06.661Z,27.87
2018-04-11T23:40:34.875Z,30.13
2018-04-11T23:43:03.037Z,28.63
2018-04-11T23:45:31.173Z,28.27
2018-04-11T23:47:59.392Z,29.47
2018-04-11T23:50:30.361Z,28.10
2018-04-11T23:53:00.113Z,29.40
2018-04-11T23:55:28.246Z,28.90
2018-04-11T23:57:57.183Z,30.97
